Time;durP1;ratioP1;P1;durP2;ratioP2;P2;SDS_P1;SDS_P2;PMS_P1;PMS_P2;Temp;Humidity;BMP_temperature;BMP_pressure;BME280_temperature;BME280_humidity;BME280_pressure;Samples;Min_cycle;Max_cycle;Signal;HPM_P1;HPM_P2
2021/12/10 00:02:31;;;;;;;0.87;0.40;;;23.90;32.80;;;;;;5093295;28;20540;-68
2021/12/10 00:04:56;;;;;;;0.50;0.30;;;23.90;32.80;;;;;;5075428;28;20402;-68
2021/12/10 00:07:25;;;;;;;0.50;0.35;;;23.90;32.90;;;;;;5093443;28;20386;-68
2021/12/10 00:09:54;;;;;;;1.00;0.45;;;23.80;32.80;;;;;;5093448;28;20397;-68
2021/12/10 00:12:34;;;;;;;0.65;0.50;;;23.80;32.80;;;;;;5075070;28;20464;-68
2021/12/10 00:15:02;;;;;;;1.00;0.43;;;23.80;32.90;;;;;;5093268;28;20377;-68
2021/12/10 00:17:28;;;;;;;0.70;0.40;;;23.80;32.90;;;;;;5093374;28;20517;-68
2021/12/10 00:19:57;;;;;;;0.70;0.40;;;23.70;32.80;;;;;;5093250;28;20913;-68
2021/12/10 00:22:40;;;;;;;0.70;0.40;;;23.70;32.80;;;;;;5074754;28;20410;-68
2021/12/10 00:25:09;;;;;;;0.63;0.40;;;23.70;32.80;;;;;;5092926;28;20400;-68
2021/12/10 00:27:35;;;;;;;0.88;0.40;;;23.70;32.80;;;;;;5093006;28;20447;-68
2021/12/10 00:30:09;;;;;;;0.60;0.30;;;23.60;32.80;;;;;;5093034;28;20443;-68
2021/12/10 00:32:40;;;;;;;0.60;0.40;;;23.60;32.80;;;;;;5092625;28;20390;-68
2021/12/10 00:35:27;;;;;;;0.68;0.40;;;23.60;32.80;;;;;;5092768;28;20858;-68
2021/12/10 00:37:53;;;;;;;0.82;0.40;;;23.60;32.80;;;;;;5074448;28;20383;-68
2021/12/10 00:40:21;;;;;;;0.90;0.40;;;23.50;32.80;;;;;;5092536;28;20473;-68
2021/12/10 00:42:46;;;;;;;0.70;0.40;;;23.50;32.80;;;;;;5092572;28;20505;-68
2021/12/10 00:45:16;;;;;;;0.70;0.40;;;23.50;32.80;;;;;;5092789;28;20764;-68
2021/12/10 00:47:42;;;;;;;0.88;0.50;;;23.50;32.80;;;;;;5074489;28;20394;-68
2021/12/10 00:50:12;;;;;;;0.95;0.40;;;23.50;32.80;;;;;;5092436;28;20443;-68
2021/12/10 00:52:38;;;;;;;0.80;0.47;;;23.50;32.80;;;;;;5074073;28;20877;-68
2021/12/10 00:55:05;;;;;;;1.20;0.50;;;23.40;32.80;;;;;;5092436;28;20402;-68
2021/12/10 00:57:31;;;;;;;0.60;0.40;;;23.40;32.80;;;;;;5074398;28;20421;-68
2021/12/10 00:59:58;;;;;;;0.80;0.50;;;23.40;32.80;;;;;;5092492;28;20728;-69
2021/12/10 01:02:25;;;;;;;0.98;0.47;;;23.30;32.80;;;;;;5092229;28;20500;-68
2021/12/10 01:04:56;;;;;;;0.65;0.40;;;23.30;32.80;;;;;;5092176;28;20394;-68
2021/12/10 01:07:25;;;;;;;0.70;0.50;;;23.30;32.80;;;;;;5073974;28;20378;-68
2021/12/10 01:09:53;;;;;;;0.70;0.50;;;23.30;32.80;;;;;;5073950;28;20882;-68
2021/12/10 01:12:37;;;;;;;1.00;0.50;;;23.30;32.80;;;;;;5073987;28;20469;-68
2021/12/10 01:26:52;;;;;;;0.98;0.50;;;23.20;32.80;;;;;;5049428;28;20506;-68
2021/12/10 01:29:40;;;;;;;0.80;0.50;;;23.10;32.80;;;;;;5090201;28;20386;-69
2021/12/10 01:32:09;;;;;;;0.90;0.50;;;23.10;32.80;;;;;;5091956;28;20757;-68
2021/12/10 01:34:35;;;;;;;0.68;0.50;;;23.10;32.80;;;;;;5091406;28;20439;-68
2021/12/10 01:37:02;;;;;;;1.00;0.50;;;23.10;32.80;;;;;;5091400;28;20394;-68
2021/12/10 01:39:35;;;;;;;0.90;0.55;;;23.10;32.70;;;;;;5073302;28;20394;-68
2021/12/10 01:42:14;;;;;;;0.93;0.60;;;23.00;32.70;;;;;;5091411;28;20897;-68
2021/12/10 01:44:45;;;;;;;0.80;0.40;;;23.00;32.70;;;;;;5090754;28;20447;-68
2021/12/10 01:47:12;;;;;;;0.80;0.50;;;23.00;32.80;;;;;;5091709;28;20381;-68
2021/12/10 01:49:39;;;;;;;0.80;0.52;;;23.00;32.70;;;;;;5091771;28;20937;-68
2021/12/10 01:52:07;;;;;;;0.80;0.43;;;22.90;32.70;;;;;;5091699;28;21243;-68
2021/12/10 01:54:38;;;;;;;0.90;0.47;;;22.90;32.70;;;;;;5091545;28;20798;-68
2021/12/10 01:57:06;;;;;;;0.98;0.60;;;22.90;32.70;;;;;;5091610;28;20469;-68
2021/12/10 01:59:34;;;;;;;0.85;0.40;;;22.90;32.70;;;;;;5073453;28;20929;-68
2021/12/10 02:02:05;;;;;;;0.82;0.50;;;22.90;32.70;;;;;;5091594;28;20383;-68
2021/12/10 02:04:33;;;;;;;1.08;0.55;;;22.80;32.70;;;;;;5091354;28;20455;-68
2021/12/10 02:07:00;;;;;;;0.88;0.50;;;22.80;32.70;;;;;;5091243;28;20410;-68
2021/12/10 02:09:27;;;;;;;1.15;0.50;;;22.80;32.60;;;;;;5091469;28;20481;-68
2021/12/10 02:11:53;;;;;;;1.23;0.70;;;22.80;32.60;;;;;;5091505;28;20474;-69
2021/12/10 02:14:20;;;;;;;0.70;0.40;;;22.70;32.70;;;;;;5091458;28;20386;-68
2021/12/10 02:16:46;;;;;;;0.60;0.40;;;22.70;32.60;;;;;;5090537;28;20746;-69
2021/12/10 02:19:13;;;;;;;0.90;0.50;;;22.70;32.70;;;;;;5072453;28;20386;-68
2021/12/10 02:21:40;;;;;;;0.93;0.50;;;22.70;32.70;;;;;;5073278;28;20386;-68
2021/12/10 02:24:07;;;;;;;1.08;0.50;;;22.70;32.70;;;;;;5091187;28;20428;-68
2021/12/10 02:26:37;;;;;;;1.00;0.50;;;22.70;32.70;;;;;;5091117;28;20405;-68
2021/12/10 02:29:05;;;;;;;0.80;0.43;;;22.60;32.60;;;;;;5091224;28;20435;-68
2021/12/10 02:31:31;;;;;;;0.70;0.50;;;22.60;32.60;;;;;;5091323;28;20386;-68
2021/12/10 02:33:57;;;;;;;0.83;0.50;;;22.60;32.60;;;;;;5091176;28;20396;-68
2021/12/10 02:36:24;;;;;;;1.10;0.40;;;22.50;32.60;;;;;;5073169;28;20416;-68
2021/12/10 02:38:52;;;;;;;0.88;0.50;;;22.50;32.60;;;;;;5072904;28;20456;-68
2021/12/10 02:41:20;;;;;;;1.02;0.47;;;22.50;32.60;;;;;;5090958;28;20447;-68
2021/12/10 02:43:47;;;;;;;0.80;0.40;;;22.50;32.60;;;;;;5091138;28;20416;-68
2021/12/10 02:46:13;;;;;;;0.70;0.40;;;22.50;32.60;;;;;;5091117;28;20392;-68
2021/12/10 02:48:39;;;;;;;0.82;0.45;;;22.50;32.60;;;;;;5090788;28;20386;-68
2021/12/10 02:51:07;;;;;;;0.90;0.50;;;22.40;32.50;;;;;;5090644;28;20394;-68
2021/12/10 02:53:40;;;;;;;1.50;0.50;;;22.40;32.50;;;;;;5073006;28;20893;-68
2021/12/10 02:56:05;;;;;;;0.63;0.40;;;22.40;32.50;;;;;;5091432;28;20816;-68
2021/12/10 02:58:32;;;;;;;1.10;0.50;;;22.40;32.50;;;;;;5094674;28;20382;-68
2021/12/10 03:01:09;;;;;;;0.70;0.50;;;22.40;32.50;;;;;;5075972;28;20406;-68
2021/12/10 03:03:38;;;;;;;0.50;0.40;;;22.40;32.50;;;;;;5076539;28;20409;-68
2021/12/10 03:06:10;;;;;;;1.20;0.50;;;22.40;32.50;;;;;;5076576;28;20383;-68
2021/12/10 03:08:37;;;;;;;0.80;0.40;;;22.30;32.50;;;;;;5094508;28;20473;-68
2021/12/10 03:11:03;;;;;;;0.60;0.40;;;22.30;32.50;;;;;;5076401;28;20386;-68
2021/12/10 03:13:29;;;;;;;1.40;0.60;;;22.30;32.50;;;;;;5076256;28;20896;-68
2021/12/10 03:15:55;;;;;;;1.08;0.52;;;22.30;32.50;;;;;;5076394;28;20374;-68
2021/12/10 03:18:21;;;;;;;0.60;0.40;;;22.30;32.50;;;;;;5094575;28;20428;-68
2021/12/10 03:20:47;;;;;;;0.90;0.40;;;22.30;32.50;;;;;;5093672;28;20385;-68
2021/12/10 03:23:13;;;;;;;0.80;0.50;;;22.20;32.50;;;;;;5094174;28;20409;-68
2021/12/10 03:25:40;;;;;;;0.63;0.40;;;22.20;32.50;;;;;;5094296;28;20374;-68
2021/12/10 03:28:07;;;;;;;0.75;0.50;;;22.20;32.50;;;;;;5076162;28;20476;-68
2021/12/10 03:30:37;;;;;;;1.00;0.40;;;22.20;32.50;;;;;;5094143;28;20393;-68
2021/12/10 03:33:03;;;;;;;0.73;0.40;;;22.10;32.40;;;;;;5075626;28;20397;-68
2021/12/10 03:35:33;;;;;;;0.85;0.43;;;22.10;32.40;;;;;;5094144;28;20386;-68
2021/12/10 03:38:03;;;;;;;1.10;0.40;;;22.10;32.40;;;;;;5094068;28;20420;-68
2021/12/10 03:40:28;;;;;;;0.60;0.40;;;22.10;32.50;;;;;;5093715;28;20400;-68
2021/12/10 03:42:58;;;;;;;1.13;0.50;;;22.10;32.50;;;;;;5093714;28;20472;-68
2021/12/10 03:45:27;;;;;;;0.75;0.47;;;22.10;32.40;;;;;;5094018;28;20811;-68
2021/12/10 03:47:52;;;;;;;0.70;0.40;;;22.10;32.50;;;;;;5075688;28;20836;-68
2021/12/10 03:50:27;;;;;;;0.73;0.40;;;22.00;32.40;;;;;;5093902;28;20388;-68
2021/12/10 03:52:53;;;;;;;0.50;0.30;;;22.00;32.40;;;;;;5093362;28;20386;-68
2021/12/10 03:55:21;;;;;;;1.30;0.47;;;22.00;32.50;;;;;;5075437;28;20908;-68
2021/12/10 03:57:46;;;;;;;0.60;0.40;;;22.00;32.40;;;;;;5093194;28;20382;-67
2021/12/10 04:00:13;;;;;;;0.80;0.40;;;21.90;32.50;;;;;;5093638;28;20465;-67
2021/12/10 04:02:39;;;;;;;0.90;0.50;;;21.90;32.40;;;;;;5093365;28;20417;-68
2021/12/10 04:05:05;;;;;;;0.73;0.40;;;21.90;32.40;;;;;;5093425;28;20379;-68
2021/12/10 04:07:31;;;;;;;0.75;0.43;;;21.90;32.70;;;;;;5093139;28;20389;-68
2021/12/10 04:09:57;;;;;;;0.80;0.40;;;21.90;33.20;;;;;;5093255;28;20386;-68
2021/12/10 04:12:22;;;;;;;2.00;0.50;;;21.90;33.00;;;;;;5093125;28;20468;-68
2021/12/10 04:14:50;;;;;;;4.15;0.80;;;22.00;33.70;;;;;;5092816;28;20399;-68
2021/12/10 04:17:19;;;;;;;6.70;3.50;;;21.90;33.90;;;;;;5093313;28;20518;-68
2021/12/10 04:19:46;;;;;;;2.85;1.67;;;22.00;35.90;;;;;;5093016;28;20393;-69
2021/12/10 04:22:13;;;;;;;4.28;1.10;;;22.00;35.80;;;;;;5093185;28;20421;-70
2021/12/10 04:24:40;;;;;;;3.80;0.90;;;22.10;35.60;;;;;;5092996;28;20998;-69
2021/12/10 04:27:09;;;;;;;3.65;0.80;;;22.00;35.40;;;;;;5092848;28;20386;-68
2021/12/10 04:29:35;;;;;;;1.50;0.90;;;22.10;35.50;;;;;;5093060;28;20422;-69
2021/12/10 04:32:01;;;;;;;1.65;0.70;;;22.10;35.20;;;;;;5093087;28;20475;-70
2021/12/10 04:34:27;;;;;;;1.52;0.65;;;22.00;35.20;;;;;;5093097;28;20472;-68
2021/12/10 04:36:55;;;;;;;3.55;0.80;;;22.00;35.30;;;;;;5092513;28;20908;-68
2021/12/10 04:39:20;;;;;;;2.70;0.70;;;22.10;35.70;;;;;;5092910;28;20922;-69
2021/12/10 04:41:46;;;;;;;3.10;0.63;;;22.00;35.60;;;;;;5092664;28;20406;-70
2021/12/10 04:44:12;;;;;;;1.30;0.50;;;22.00;35.60;;;;;;5092794;28;20904;-68
2021/12/10 04:46:39;;;;;;;1.70;0.60;;;22.00;35.60;;;;;;5092519;28;20382;-68
2021/12/10 04:49:08;;;;;;;4.57;0.60;;;22.10;35.70;;;;;;5092489;28;20386;-68
2021/12/10 04:51:40;;;;;;;1.40;0.60;;;22.00;36.00;;;;;;5092726;28;20439;-70
2021/12/10 04:54:08;;;;;;;2.22;0.55;;;22.00;36.50;;;;;;5074383;28;20386;-68
2021/12/10 04:56:35;;;;;;;2.92;0.50;;;22.00;35.60;;;;;;5074132;28;20436;-68
2021/12/10 04:59:04;;;;;;;1.40;0.47;;;22.00;35.30;;;;;;5092741;28;20823;-69
2021/12/10 05:01:30;;;;;;;1.17;0.40;;;21.90;35.50;;;;;;5092534;28;20388;-69
2021/12/10 05:03:56;;;;;;;1.38;0.50;;;21.90;35.40;;;;;;5092289;28;20414;-68
2021/12/10 05:06:21;;;;;;;0.73;0.30;;;21.80;35.20;;;;;;5074081;28;20401;-69
2021/12/10 05:08:47;;;;;;;0.90;0.50;;;21.70;35.30;;;;;;5092112;28;20394;-68
2021/12/10 05:11:14;;;;;;;0.75;0.30;;;21.70;34.60;;;;;;5092155;28;20378;-69
2021/12/10 05:13:43;;;;;;;0.63;0.40;;;21.60;34.90;;;;;;5091927;28;20429;-69
2021/12/10 05:16:10;;;;;;;1.30;0.60;;;21.60;34.50;;;;;;5091595;28;20432;-69
2021/12/10 05:18:39;;;;;;;1.23;0.40;;;21.60;34.50;;;;;;5073592;28;20628;-68
2021/12/10 05:21:08;;;;;;;1.30;0.50;;;21.50;34.40;;;;;;5091054;28;20829;-68
2021/12/10 05:23:34;;;;;;;1.08;0.50;;;21.50;34.50;;;;;;5091988;28;20498;-68
2021/12/10 05:26:00;;;;;;;2.30;0.60;;;21.50;34.40;;;;;;5092171;28;20382;-68
2021/12/10 05:28:26;;;;;;;2.15;0.47;;;21.50;34.40;;;;;;5091759;28;20382;-68
2021/12/10 05:30:55;;;;;;;0.93;0.50;;;21.40;34.40;;;;;;5089343;28;20415;-69
2021/12/10 05:33:22;;;;;;;0.95;0.50;;;21.40;34.10;;;;;;5099729;28;20395;-69
2021/12/10 05:35:49;;;;;;;1.08;0.50;;;21.40;34.10;;;;;;5091006;28;20457;-69
2021/12/10 05:38:17;;;;;;;1.55;0.40;;;21.40;34.00;;;;;;5071788;28;20395;-68
2021/12/10 05:40:44;;;;;;;0.90;0.50;;;21.40;33.90;;;;;;5071273;28;20407;-69
2021/12/10 05:43:10;;;;;;;0.63;0.47;;;21.40;34.10;;;;;;5071112;28;20407;-68
2021/12/10 05:45:35;;;;;;;0.87;0.47;;;21.30;34.00;;;;;;5081446;28;20805;-69
2021/12/10 05:48:01;;;;;;;0.65;0.40;;;21.30;33.90;;;;;;5094447;28;20380;-69
2021/12/10 05:50:29;;;;;;;1.00;0.40;;;21.30;33.80;;;;;;5091768;28;20428;-68
2021/12/10 05:52:55;;;;;;;0.88;0.43;;;21.30;33.80;;;;;;5091174;28;20416;-68
2021/12/10 05:55:21;;;;;;;1.10;0.40;;;21.30;33.70;;;;;;5091728;28;20418;-68
2021/12/10 05:57:47;;;;;;;1.02;0.50;;;21.20;33.60;;;;;;5091693;28;20377;-68
2021/12/10 06:00:24;;;;;;;2.42;0.50;;;21.30;34.00;;;;;;5089854;28;20386;-69
2021/12/10 06:02:50;;;;;;;1.67;0.50;;;21.30;34.70;;;;;;5092181;28;20406;-69
2021/12/10 06:05:16;;;;;;;1.27;0.60;;;21.30;35.40;;;;;;5089901;28;20471;-68
2021/12/10 06:07:42;;;;;;;1.30;0.45;;;21.30;35.10;;;;;;5090171;28;20379;-69
2021/12/10 06:10:11;;;;;;;3.27;0.70;;;21.30;35.20;;;;;;5090958;28;20397;-69
2021/12/10 06:12:37;;;;;;;3.67;0.80;;;21.30;35.80;;;;;;5097078;28;20398;-69
2021/12/10 06:15:07;;;;;;;4.10;0.90;;;21.40;36.00;;;;;;5090521;28;20433;-68
2021/12/10 06:17:32;;;;;;;3.50;0.60;;;21.40;35.70;;;;;;5072006;28;20912;-68
2021/12/10 06:19:59;;;;;;;3.08;0.68;;;21.30;35.60;;;;;;5090625;28;20394;-69
2021/12/10 06:22:26;;;;;;;3.22;0.60;;;21.30;35.70;;;;;;5090517;28;20408;-69
2021/12/10 06:24:52;;;;;;;3.80;0.63;;;21.30;35.70;;;;;;5090628;28;20390;-69
2021/12/10 06:27:18;;;;;;;2.97;0.63;;;21.30;35.80;;;;;;5090963;28;20390;-69
2021/12/10 06:29:44;;;;;;;2.95;0.73;;;21.30;35.50;;;;;;5090816;28;20405;-69
2021/12/10 06:32:10;;;;;;;2.60;0.50;;;21.30;35.30;;;;;;5093288;28;20382;-69
2021/12/10 06:34:37;;;;;;;2.25;0.50;;;21.30;35.30;;;;;;5093755;28;20381;-68
2021/12/10 06:37:05;;;;;;;2.70;0.52;;;21.30;35.30;;;;;;5064500;28;20411;-69
2021/12/10 06:39:31;;;;;;;2.30;0.45;;;21.30;35.40;;;;;;5093587;28;20386;-68
2021/12/10 06:41:57;;;;;;;3.83;0.50;;;21.20;35.30;;;;;;5084391;28;20409;-69
2021/12/10 06:44:23;;;;;;;2.80;0.57;;;21.20;34.50;;;;;;5078835;28;20418;-69
2021/12/10 06:46:50;;;;;;;2.50;0.45;;;21.20;35.00;;;;;;5083976;28;20409;-69
2021/12/10 06:49:17;;;;;;;2.35;0.60;;;21.10;34.80;;;;;;5076694;28;20425;-69
2021/12/10 06:51:43;;;;;;;4.13;0.77;;;21.10;34.90;;;;;;5081016;28;20424;-69
2021/12/10 06:54:10;;;;;;;1.13;0.60;;;21.20;34.60;;;;;;5083928;28;20404;-69
2021/12/10 06:56:36;;;;;;;1.13;0.47;;;21.30;34.50;;;;;;5093210;28;20406;-70
2021/12/10 06:59:07;;;;;;;2.75;0.52;;;21.30;34.30;;;;;;5090141;28;20451;-69
2021/12/10 07:01:41;;;;;;;1.70;0.50;;;21.40;34.10;;;;;;5093045;28;20366;-69
2021/12/10 07:04:12;;;;;;;1.67;0.50;;;21.50;33.90;;;;;;5093936;28;20409;-69
2021/12/10 07:06:41;;;;;;;1.50;0.40;;;21.50;33.80;;;;;;5094213;28;20379;-70
2021/12/10 07:09:17;;;;;;;1.73;0.60;;;21.60;33.60;;;;;;5093884;28;20378;-70
2021/12/10 07:11:43;;;;;;;2.35;0.60;;;21.50;33.40;;;;;;5076460;28;20386;-70
2021/12/10 07:14:09;;;;;;;1.30;0.50;;;21.60;33.40;;;;;;5094189;28;20746;-70
2021/12/10 07:16:35;;;;;;;2.22;0.50;;;21.60;33.20;;;;;;5093956;28;20389;-70
2021/12/10 07:19:05;;;;;;;1.92;0.47;;;21.60;33.10;;;;;;5093705;28;20382;-69
2021/12/10 07:21:32;;;;;;;2.30;0.43;;;21.60;33.00;;;;;;5094589;28;20429;-70
2021/12/10 07:24:01;;;;;;;1.80;0.50;;;21.60;32.90;;;;;;5096351;28;20418;-69
2021/12/10 07:26:28;;;;;;;4.80;0.60;;;21.70;33.20;;;;;;5093858;28;20870;-69
2021/12/10 07:28:55;;;;;;;2.67;0.70;;;21.70;33.40;;;;;;5093312;28;20428;-69
2021/12/10 07:31:21;;;;;;;2.45;0.60;;;21.80;33.40;;;;;;5093730;28;20378;-69
2021/12/10 07:33:47;;;;;;;1.35;0.55;;;21.80;33.20;;;;;;5093644;28;20394;-71
2021/12/10 07:36:14;;;;;;;3.45;0.50;;;21.80;33.30;;;;;;5093616;28;20381;-70
2021/12/10 07:38:41;;;;;;;2.00;0.65;;;21.80;32.80;;;;;;5093374;28;20382;-69
2021/12/10 07:41:07;;;;;;;1.38;0.60;;;21.80;32.80;;;;;;5093002;28;20410;-70
2021/12/10 07:43:34;;;;;;;2.60;0.60;;;21.80;32.80;;;;;;5092281;28;20410;-70
2021/12/10 07:45:59;;;;;;;1.17;0.60;;;21.80;32.70;;;;;;5093761;28;20862;-71
2021/12/10 07:48:27;;;;;;;2.65;0.50;;;21.80;32.60;;;;;;5085691;28;20404;-70
2021/12/10 07:50:58;;;;;;;2.33;0.60;;;21.80;32.50;;;;;;5095463;28;20392;-68
2021/12/10 07:53:27;;;;;;;1.83;0.50;;;21.80;32.50;;;;;;5093361;28;20460;-70
2021/12/10 07:55:55;;;;;;;2.00;0.60;;;21.80;32.40;;;;;;5091106;28;20394;-68
2021/12/10 07:58:22;;;;;;;0.98;0.40;;;21.80;32.40;;;;;;5092437;28;20393;-69
2021/12/10 08:00:49;;;;;;;1.52;0.50;;;21.90;32.40;;;;;;5088305;28;20427;-68
2021/12/10 08:03:15;;;;;;;1.70;0.50;;;21.90;32.40;;;;;;5091722;28;20464;-68
2021/12/10 08:05:41;;;;;;;1.30;0.50;;;21.90;32.50;;;;;;5074208;28;20397;-68
2021/12/10 08:08:08;;;;;;;1.67;0.50;;;21.90;32.50;;;;;;5073748;28;20942;-68
2021/12/10 08:10:35;;;;;;;1.00;0.52;;;21.90;32.30;;;;;;5073943;28;20513;-69
2021/12/10 08:13:01;;;;;;;1.98;0.70;;;21.90;32.20;;;;;;5080112;28;21207;-69
2021/12/10 08:15:27;;;;;;;1.45;0.50;;;21.90;32.10;;;;;;5085820;28;20394;-69
2021/12/10 08:17:54;;;;;;;1.55;0.43;;;21.90;32.00;;;;;;5097545;28;20388;-69
2021/12/10 08:20:24;;;;;;;2.63;0.60;;;22.00;32.10;;;;;;5100240;28;20386;-70
2021/12/10 08:22:52;;;;;;;1.17;0.55;;;22.00;32.40;;;;;;5092537;28;20785;-69
2021/12/10 08:25:20;;;;;;;1.30;0.60;;;22.00;32.50;;;;;;5086597;28;20391;-69
2021/12/10 08:27:46;;;;;;;1.17;0.60;;;22.00;32.30;;;;;;5092341;28;20401;-69
2021/12/10 08:30:13;;;;;;;1.60;0.80;;;22.00;31.60;;;;;;5092678;28;20913;-69
2021/12/10 08:32:40;;;;;;;3.72;1.13;;;22.10;31.40;;;;;;5092506;28;20383;-68
2021/12/10 08:35:10;;;;;;;4.63;1.53;;;22.20;31.50;;;;;;5091575;28;20399;-69
2021/12/10 08:37:36;;;;;;;2.30;1.20;;;22.30;31.50;;;;;;5092655;28;20385;-69
2021/12/10 08:40:03;;;;;;;5.50;1.50;;;22.50;31.30;;;;;;5092060;28;20441;-70
2021/12/10 08:42:29;;;;;;;3.63;1.30;;;22.60;30.70;;;;;;5103810;28;20474;-70
2021/12/10 08:44:55;;;;;;;3.97;1.23;;;22.50;30.40;;;;;;5082313;28;20883;-69
2021/12/10 08:47:20;;;;;;;8.20;1.60;;;22.60;30.60;;;;;;5112550;28;20953;-69
2021/12/10 08:49:46;;;;;;;2.77;1.30;;;22.40;30.70;;;;;;5112619;28;20424;-69
2021/12/10 08:52:14;;;;;;;7.35;1.67;;;22.40;30.60;;;;;;5110069;28;20388;-70
2021/12/10 08:54:43;;;;;;;6.30;1.70;;;22.40;31.40;;;;;;5092037;28;20394;-69
2021/12/10 08:57:10;;;;;;;4.53;1.33;;;22.40;31.70;;;;;;5091594;28;20462;-69
2021/12/10 08:59:36;;;;;;;5.15;1.27;;;22.40;31.60;;;;;;5092014;28;20523;-69
2021/12/10 09:02:05;;;;;;;3.67;1.30;;;22.40;31.60;;;;;;5088303;28;20418;-68
2021/12/10 09:04:33;;;;;;;4.03;1.20;;;22.30;32.10;;;;;;5082494;28;20809;-68
2021/12/10 09:07:03;;;;;;;5.10;1.20;;;22.30;32.20;;;;;;5091443;28;20378;-68
2021/12/10 09:09:30;;;;;;;5.28;1.30;;;22.30;32.40;;;;;;5091653;28;20390;-69
2021/12/10 09:11:59;;;;;;;3.43;1.13;;;22.20;32.10;;;;;;5091732;28;20465;-69
2021/12/10 09:14:29;;;;;;;3.40;1.45;;;22.20;32.50;;;;;;5091774;28;20382;-69
2021/12/10 09:16:58;;;;;;;2.78;1.20;;;22.20;32.50;;;;;;5091062;28;20386;-68
2021/12/10 09:19:25;;;;;;;3.08;1.10;;;22.20;32.50;;;;;;5091527;28;20443;-69
2021/12/10 09:21:51;;;;;;;3.88;1.15;;;22.20;32.60;;;;;;5091515;28;20378;-69
2021/12/10 09:24:20;;;;;;;2.90;1.20;;;22.20;32.50;;;;;;5091193;28;20405;-69
2021/12/10 09:26:48;;;;;;;9.75;1.40;;;22.20;32.60;;;;;;5091242;28;20385;-69
2021/12/10 09:29:18;;;;;;;4.90;1.37;;;22.20;33.10;;;;;;5091259;28;20508;-69
2021/12/10 09:31:45;;;;;;;6.43;1.20;;;22.30;33.50;;;;;;5091049;28;20957;-69
2021/12/10 09:34:13;;;;;;;6.50;1.40;;;22.30;34.90;;;;;;5090581;28;20421;-69
2021/12/10 09:36:40;;;;;;;4.68;1.50;;;22.30;40.00;;;;;;5091214;28;20389;-69
2021/12/10 09:39:08;;;;;;;5.30;1.23;;;22.40;40.10;;;;;;5090419;28;20390;-68
2021/12/10 09:41:34;;;;;;;6.72;1.40;;;22.40;38.80;;;;;;5090736;28;20774;-68
2021/12/10 09:43:59;;;;;;;5.00;1.40;;;22.40;38.30;;;;;;5091400;28;20418;-69
2021/12/10 09:46:25;;;;;;;3.83;1.40;;;22.40;38.30;;;;;;5091424;28;20385;-68
2021/12/10 09:48:51;;;;;;;6.60;1.67;;;22.40;38.90;;;;;;5091334;28;20383;-69
2021/12/10 09:51:35;;;;;;;6.00;1.90;;;22.50;39.00;;;;;;5090967;28;20436;-70
2021/12/10 09:54:10;;;;;;;5.90;1.60;;;22.50;39.40;;;;;;5084794;28;20755;-69
2021/12/10 09:56:42;;;;;;;3.05;1.40;;;22.60;37.30;;;;;;5089992;28;20386;-70
2021/12/10 09:59:07;;;;;;;4.72;1.05;;;22.60;36.20;;;;;;5089305;28;20533;-69
2021/12/10 10:01:37;;;;;;;3.20;1.05;;;22.50;35.30;;;;;;5078761;28;20479;-69
2021/12/10 10:04:05;;;;;;;4.63;0.90;;;22.60;35.10;;;;;;5089782;28;20430;-69
2021/12/10 10:06:40;;;;;;;3.07;1.10;;;22.60;34.90;;;;;;5088979;28;20409;-69
2021/12/10 10:09:08;;;;;;;3.25;0.93;;;22.60;34.60;;;;;;5069327;28;20757;-69
2021/12/10 10:11:35;;;;;;;2.60;0.85;;;22.50;34.40;;;;;;5091150;28;20867;-70
2021/12/10 10:14:03;;;;;;;4.63;0.90;;;22.60;34.60;;;;;;5090910;28;20389;-70
2021/12/10 10:16:30;;;;;;;3.08;1.10;;;22.60;34.30;;;;;;5091187;28;20469;-71
2021/12/10 10:18:57;;;;;;;5.18;1.00;;;22.60;34.10;;;;;;5090817;28;20426;-71
2021/12/10 10:21:27;;;;;;;3.90;0.90;;;22.60;33.50;;;;;;5072449;28;20834;-70
2021/12/10 10:23:53;;;;;;;4.32;1.00;;;22.50;33.50;;;;;;5072628;28;20464;-70
2021/12/10 10:26:31;;;;;;;4.70;1.17;;;22.50;33.90;;;;;;5092031;28;20738;-70
2021/12/10 10:29:03;;;;;;;2.38;1.00;;;22.50;33.80;;;;;;5090479;28;20465;-70
2021/12/10 10:31:30;;;;;;;3.70;1.00;;;22.50;33.80;;;;;;5089483;28;20386;-70
2021/12/10 10:33:58;;;;;;;3.55;0.93;;;22.50;33.70;;;;;;5092506;28;20378;-70
2021/12/10 10:36:32;;;;;;;2.13;0.90;;;22.60;33.60;;;;;;5090921;28;20382;-70
2021/12/10 10:39:03;;;;;;;2.65;0.90;;;22.60;34.20;;;;;;5090322;28;20382;-70
2021/12/10 10:41:31;;;;;;;2.15;0.90;;;22.70;33.60;;;;;;5090629;28;20491;-70
2021/12/10 10:43:58;;;;;;;2.03;0.70;;;22.70;33.40;;;;;;5090429;28;20418;-72
2021/12/10 10:46:24;;;;;;;2.40;0.70;;;22.70;33.20;;;;;;5089442;28;20858;-71
2021/12/10 10:48:49;;;;;;;3.42;1.20;;;22.70;33.10;;;;;;5089022;28;20401;-71
2021/12/10 10:51:29;;;;;;;1.80;0.77;;;22.80;33.20;;;;;;5088741;28;20421;-71
2021/12/10 10:53:57;;;;;;;1.40;0.70;;;22.80;33.20;;;;;;5087631;28;20382;-70
2021/12/10 10:56:41;;;;;;;1.70;0.77;;;22.80;33.80;;;;;;5078662;28;20436;-70
2021/12/10 10:59:20;;;;;;;1.40;0.80;;;22.80;33.10;;;;;;5079207;28;20901;-69
2021/12/10 11:01:58;;;;;;;2.10;0.63;;;22.80;33.00;;;;;;5068845;28;20870;-68
2021/12/10 11:04:36;;;;;;;1.77;0.77;;;22.80;32.90;;;;;;5090683;28;20559;-68
2021/12/10 11:07:13;;;;;;;2.00;0.70;;;22.80;32.50;;;;;;5091419;28;20386;-68
2021/12/10 11:10:08;;;;;;;3.00;0.73;;;22.80;32.20;;;;;;5073086;28;20958;-68
2021/12/10 11:12:40;;;;;;;3.00;0.70;;;22.80;32.40;;;;;;5073729;28;20395;-68
2021/12/10 11:15:15;;;;;;;2.33;0.70;;;22.80;32.30;;;;;;5091522;28;20396;-68
2021/12/10 11:17:51;;;;;;;3.10;0.73;;;22.80;32.30;;;;;;5090521;28;20381;-68
2021/12/10 11:20:23;;;;;;;1.30;0.70;;;22.80;32.10;;;;;;5094181;28;20401;-68
2021/12/10 11:23:03;;;;;;;1.92;0.60;;;22.80;32.10;;;;;;5093988;28;20401;-68
2021/12/10 11:25:37;;;;;;;1.40;0.60;;;22.80;32.10;;;;;;5093965;28;20405;-68
2021/12/10 11:28:14;;;;;;;1.45;0.73;;;22.80;32.00;;;;;;5075519;28;20773;-68
2021/12/10 11:30:44;;;;;;;2.15;0.82;;;22.80;32.00;;;;;;5093755;28;20432;-68
2021/12/10 11:33:19;;;;;;;1.50;0.65;;;22.80;31.90;;;;;;5093322;28;20401;-68
2021/12/10 11:36:05;;;;;;;1.90;0.70;;;22.70;31.80;;;;;;5093178;28;20382;-68
2021/12/10 11:38:32;;;;;;;2.15;0.77;;;22.70;31.70;;;;;;5093805;28;20378;-68
2021/12/10 11:41:14;;;;;;;2.67;0.88;;;22.70;31.60;;;;;;5087597;28;20928;-68
2021/12/10 11:44:19;;;;;;;3.53;0.73;;;22.60;33.60;;;;;;5109466;28;20443;-69
2021/12/10 11:47:02;;;;;;;3.30;0.88;;;22.60;33.90;;;;;;5096108;28;20744;-67
2021/12/10 11:49:38;;;;;;;3.80;1.00;;;22.70;33.70;;;;;;5107840;28;20449;-67
2021/12/10 11:52:03;;;;;;;2.83;1.02;;;22.70;33.60;;;;;;5093947;28;20386;-67
2021/12/10 11:54:32;;;;;;;3.20;1.20;;;22.70;33.30;;;;;;5075116;28;20405;-68
2021/12/10 11:57:03;;;;;;;3.60;1.20;;;22.60;33.30;;;;;;5090330;28;20397;-67
2021/12/10 11:59:33;;;;;;;3.65;1.23;;;22.60;32.90;;;;;;5093409;28;20386;-68
2021/12/10 12:02:02;;;;;;;4.63;1.20;;;22.60;32.80;;;;;;5093488;28;20423;-68
2021/12/10 12:04:44;;;;;;;3.30;1.10;;;22.60;32.80;;;;;;5093440;28;20487;-68
2021/12/10 12:07:38;;;;;;;3.83;1.02;;;22.50;32.80;;;;;;5094401;28;20377;-69
2021/12/10 12:10:16;;;;;;;4.50;1.10;;;22.50;32.90;;;;;;5082191;28;20406;-68
2021/12/10 12:13:11;;;;;;;4.00;1.10;;;22.50;33.00;;;;;;5075025;28;20792;-68
2021/12/10 12:15:42;;;;;;;4.03;1.30;;;22.50;33.40;;;;;;5083155;28;20482;-68
2021/12/10 12:18:18;;;;;;;6.00;1.30;;;22.50;33.70;;;;;;5092967;28;20400;-68
2021/12/10 12:20:58;;;;;;;5.85;1.10;;;22.60;33.40;;;;;;5093267;28;20931;-68
2021/12/10 12:26:23;;;;;;;3.35;1.02;;;22.70;33.70;;;;;;5090104;28;20389;-68
2021/12/10 12:29:10;;;;;;;7.72;1.92;;;22.80;33.30;;;;;;5105007;28;20476;-69
2021/12/10 12:31:40;;;;;;;21.33;19.48;;;22.90;33.70;;;;;;5101561;28;20401;-68
2021/12/10 12:34:14;;;;;;;10.55;9.65;;;23.40;32.30;;;;;;5089885;28;20444;-69
2021/12/10 12:36:52;;;;;;;6.20;5.70;;;23.60;31.70;;;;;;5092706;28;20888;-68
2021/12/10 12:39:51;;;;;;;5.88;5.28;;;23.70;31.30;;;;;;5092282;28;20467;-69
2021/12/10 12:42:23;;;;;;;5.53;5.03;;;23.80;31.90;;;;;;5092518;28;20489;-69
2021/12/10 12:45:02;;;;;;;5.45;4.60;;;23.80;31.90;;;;;;5092619;28;20893;-68
2021/12/10 12:47:31;;;;;;;5.72;5.10;;;23.70;32.60;;;;;;5092441;28;20382;-67
2021/12/10 12:50:10;;;;;;;7.60;5.03;;;23.70;33.50;;;;;;5092677;28;20409;-67
2021/12/10 12:52:48;;;;;;;5.65;4.93;;;23.70;35.50;;;;;;5092316;28;20738;-70
2021/12/10 12:55:41;;;;;;;7.85;5.15;;;23.70;35.60;;;;;;5080135;28;20366;-68
2021/12/10 12:58:09;;;;;;;5.93;4.97;;;23.70;35.90;;;;;;5090721;28;20386;-68
2021/12/10 13:00:46;;;;;;;5.85;4.95;;;23.70;35.90;;;;;;5092090;28;20389;-67
2021/12/10 13:03:50;;;;;;;10.77;4.68;;;23.70;35.70;;;;;;5091523;28;20862;-68
2021/12/10 13:06:37;;;;;;;5.50;4.18;;;23.60;36.70;;;;;;5082570;28;20390;-70
2021/12/10 13:09:11;;;;;;;4.20;3.75;;;23.60;36.10;;;;;;5089774;28;20385;-68
2021/12/10 13:11:57;;;;;;;5.22;3.88;;;23.60;35.60;;;;;;5089736;28;20390;-70
2021/12/10 13:14:32;;;;;;;5.57;3.55;;;23.60;35.10;;;;;;5092594;28;20370;-70